Date,TemperatureHighF,TemperatureAvgF,TemperatureLowF,DewpointHighF,DewpointAvgF,DewpointLowF,HumidityHigh,HumidityAvg,HumidityLow,PressureMaxIn,PressureMinIn,WindSpeedMaxMPH,WindSpeedAvgMPH,GustSpeedMaxMPH,PrecipitationSumIn
2013-1-1,34.7,29.8,17.7,24.4,16.3,2.2,71,57,45,29.77,29.57,11,4,27,0.00
2013-1-2,28.5,19.4,10.2,12.7,6.6,-2.0,73,57,46,29.95,29.75,9,2,24,0.00
2013-1-3,23.9,14.0,3.5,10.7,-3.2,-99.9,65,48,26,29.99,29.84,6,2,19,0.00
2013-1-4,38.0,28.8,19.9,22.2,18.0,9.7,77,64,52,29.86,29.67,7,2,25,0.01
2013-1-5,39.5,33.2,25.4,22.4,18.9,15.6,67,56,41,30.10,29.69,7,2,19,0.02
2013-1-6,42.5,32.7,25.3,27.7,23.6,15.6,88,70,53,30.06,29.79,5,1,12,0.01
2013-1-7,36.5,31.8,22.5,27.3,19.8,10.4,80,63,36,30.24,29.80,8,2,17,0.00
2013-1-8,45.4,34.2,20.0,27.0,23.4,13.9,82,66,47,30.21,30.11,6,2,18,0.00
2013-1-9,43.3,36.1,27.3,34.0,27.5,23.6,87,71,49,30.23,29.86,9,2,25,0.00
2013-1-10,43.9,39.2,32.2,27.9,22.6,20.7,65,51,40,30.38,29.88,11,4,37,0.00
2013-1-11,38.3,32.8,27.3,34.5,25.6,20.7,96,75,59,30.37,30.05,2,0,7,0.11
2013-1-12,40.9,37.6,35.0,40.1,36.8,34.0,98,97,96,30.07,29.96,1,0,5,0.05
2013-1-13,48.2,44.1,39.3,46.6,43.1,38.5,98,96,92,29.99,29.83,4,1,13,0.01
2013-1-14,56.9,48.2,37.6,51.4,40.1,24.2,98,76,36,30.09,29.70,8,3,24,0.00
2013-1-15,39.3,35.7,31.8,27.1,23.7,21.7,72,62,52,30.17,30.06,4,1,12,0.00
2013-1-16,32.7,30.6,27.8,31.5,27.3,21.2,96,88,64,30.10,29.67,3,0,7,0.00
2013-1-17,39.5,33.4,28.5,31.5,25.2,11.7,96,74,49,29.94,29.68,8,2,25,0.31
2013-1-18,28.4,20.7,16.1,13.1,-0.3,-7.6,58,40,26,30.30,29.87,9,3,26,0.00
2013-1-19,45.7,34.2,17.2,29.9,19.8,3.8,78,56,39,30.24,29.72,8,4,20,0.00
2013-1-20,51.4,38.9,26.0,30.7,23.3,6.3,78,55,27,29.76,29.39,11,5,30,0.00
2013-1-21,29.0,22.9,18.8,18.3,9.1,2.0,90,57,33,29.94,29.64,7,1,22,0.00
2013-1-22,21.8,18.0,10.4,17.8,3.8,-99.9,91,58,30,29.92,29.60,9,3,20,0.00
2013-1-23,13.5,8.8,4.1,0.9,-8.3,-13.4,69,46,31,29.99,29.91,10,3,25,0.00
2013-1-24,18.0,8.9,0.9,-9.9,-11.5,-13.1,56,40,26,30.09,29.93,11,4,26,0.00
2013-1-25,21.3,14.2,6.3,12.5,-7.7,-13.0,81,38,23,30.16,29.89,5,2,18,0.00
2013-1-26,21.3,14.8,7.9,12.6,0.9,-10.7,85,57,27,30.10,29.85,10,3,19,0.00
2013-1-27,28.7,18.8,10.4,1.9,-1.0,-4.4,63,43,24,30.31,30.09,11,3,21,0.00
2013-1-28,30.7,23.1,18.0,23.6,11.6,-0.2,94,64,31,30.31,29.85,4,0,7,0.00
2013-1-29,32.7,28.0,23.9,31.9,26.2,21.7,97,93,88,30.03,29.85,2,0,5,0.13
2013-1-30,58.0,46.2,32.2,55.5,45.1,31.2,98,96,90,29.99,29.27,9,3,20,0.10
2013-1-31,59.3,46.5,29.1,57.3,36.1,11.9,95,69,37,29.43,28.80,13,7,32,0.54
2013-2-1,30.6,26.1,19.4,17.2,6.9,0.9,64,44,30,29.93,29.42,10,4,27,0.00
2013-2-2,30.1,22.9,15.1,12.7,4.7,-0.7,67,46,32,30.09,29.88,6,2,18,0.00
2013-2-3,25.7,22.5,18.3,20.3,17.0,10.4,89,79,56,29.89,29.58,4,1,9,0.00
2013-2-4,28.4,22.1,17.7,20.2,9.2,2.4,90,59,35,29.78,29.57,10,3,25,0.00
2013-2-5,28.5,23.2,18.9,20.2,12.7,6.3,89,64,49,29.86,29.77,4,1,14,0.00
2013-2-6,36.0,28.7,22.7,26.0,16.3,0.0,90,63,34,30.14,29.75,8,2,24,0.02
2013-2-7,28.4,22.9,16.4,7.3,1.4,-2.4,59,40,27,30.36,30.11,5,1,12,0.00
2013-2-8,26.4,22.7,16.4,23.4,17.2,6.0,92,80,47,30.33,29.46,17,6,35,0.00
2013-2-9,22.7,18.0,12.8,17.5,10.9,-0.7,91,75,54,30.06,29.44,16,10,36,0.00
2013-2-10,38.0,23.7,12.3,6.4,-0.6,-5.2,56,36,19,30.25,30.05,6,2,13,0.00
2013-2-11,43.2,33.3,22.1,42.4,26.7,2.5,97,79,41,30.19,29.45,3,1,12,0.18
2013-2-12,42.6,37.6,32.7,40.1,27.1,22.9,97,66,52,29.72,29.45,9,4,22,0.00
2013-2-13,43.3,34.8,28.5,23.3,21.1,19.2,73,58,43,29.70,29.53,5,1,16,0.00
2013-2-14,44.1,35.0,29.1,23.9,19.6,16.8,73,54,36,29.82,29.53,5,1,12,0.00
2013-2-15,52.0,38.9,27.9,33.2,29.0,21.3,95,70,45,29.83,29.74,7,1,13,0.00
2013-2-16,36.2,33.2,26.7,31.5,25.8,14.5,94,75,52,29.79,29.56,7,2,17,0.03
2013-2-17,29.0,20.0,14.4,18.5,6.3,-3.0,87,57,35,29.58,29.28,14,8,37,0.00
2013-2-18,28.4,19.9,11.6,0.3,-2.8,-6.7,52,38,22,30.01,29.54,10,5,27,0.00
2013-2-19,48.3,35.3,20.6,40.4,22.0,-0.7,97,61,35,30.02,29.42,7,1,18,0.24
2013-2-20,39.9,30.3,23.5,38.9,16.9,6.8,96,59,35,29.64,29.38,12,5,28,0.00
2013-2-21,30.7,25.7,21.8,14.6,11.1,7.9,68,54,41,30.05,29.62,14,6,30,0.00
2013-2-22,38.0,29.9,21.3,21.9,17.5,14.1,78,61,41,30.22,30.00,9,2,18,0.00
2013-2-23,36.2,32.1,28.5,31.1,26.4,20.8,97,80,70,30.18,29.74,4,1,13,0.00
2013-2-24,33.2,32.2,30.6,32.2,31.2,29.6,97,96,94,29.77,29.55,9,3,19,0.37
2013-2-25,36.9,32.9,26.9,31.7,29.7,25.4,96,88,75,30.08,29.72,6,1,12,0.31
2013-2-26,41.9,35.7,32.5,31.9,28.4,25.3,90,76,52,30.17,29.98,3,1,8,0.05
2013-2-27,40.2,36.1,32.4,39.4,34.5,27.9,97,94,79,30.00,29.42,9,5,20,0.82
2013-2-28,44.2,37.4,33.2,37.3,34.1,32.0,97,88,73,29.48,29.38,4,0,11,0.02
2013-3-1,40.8,36.7,33.1,32.9,28.1,24.5,91,72,56,29.53,29.37,9,3,21,0.00
2013-3-2,39.2,35.1,31.9,26.5,24.9,23.6,74,66,57,29.53,29.47,6,2,16,0.00
2013-3-3,39.3,32.6,29.4,29.7,25.0,21.4,90,74,58,29.49,29.41,7,2,17,0.00
2013-3-4,38.6,31.6,25.4,23.9,20.7,17.2,75,64,49,29.60,29.44,10,5,28,0.00
2013-3-5,42.9,35.1,27.9,30.6,23.3,-99.9,83,64,50,29.91,29.59,7,3,27,0.00
2013-3-6,37.8,34.4,31.9,33.9,30.9,27.4,96,87,68,29.92,29.87,11,7,25,0.07
2013-3-7,32.4,30.5,28.7,29.6,27.5,24.9,95,89,78,29.90,29.84,14,9,28,0.02
2013-3-8,39.8,32.0,28.4,32.7,27.0,19.1,96,84,46,30.00,29.78,12,7,27,0.07
2013-3-9,49.9,38.2,29.0,28.2,19.8,12.4,91,51,23,30.18,29.99,10,4,22,0.02
2013-3-10,46.5,36.1,26.7,30.6,28.1,24.4,92,74,48,30.25,30.13,3,1,8,0.00
2013-3-11,54.1,42.2,33.5,38.8,33.5,30.1,92,74,46,30.16,29.98,5,2,12,0.00
2013-3-12,55.1,47.8,40.2,51.1,45.9,38.2,97,93,77,29.98,29.56,9,3,21,0.48
2013-3-13,49.2,41.3,32.8,44.2,26.9,17.0,95,60,32,29.63,29.56,8,3,18,0.00
2013-3-14,34.3,28.8,20.6,22.6,11.7,3.0,62,49,36,29.69,29.57,10,4,25,0.00
2013-3-15,40.5,29.2,17.5,27.5,12.5,1.8,84,52,24,29.72,29.49,6,3,24,0.00
2013-3-16,39.5,32.2,25.8,26.6,13.0,5.6,83,47,27,29.71,29.52,6,2,17,0.00
2013-3-17,35.5,29.5,23.9,14.9,6.7,-99.9,66,41,21,30.15,29.71,11,3,24,0.00
2013-3-18,38.9,26.8,16.4,24.2,4.1,-5.6,87,41,18,30.30,30.06,4,1,11,0.00
2013-3-19,33.1,30.1,26.7,32.3,29.0,23.7,97,96,84,30.05,29.48,10,4,21,0.19
2013-3-20,36.3,29.4,23.3,26.6,19.5,16.6,95,68,46,29.65,29.54,8,2,25,0.26
2013-3-21,36.6,29.0,22.9,27.3,19.6,13.3,91,69,40,29.66,29.46,3,0,11,0.10
2013-3-22,39.8,30.9,23.5,21.9,16.4,12.5,64,55,35,29.60,29.46,7,3,24,0.01
2013-3-23,40.8,33.6,26.6,22.5,17.8,14.4,75,53,35,29.65,29.51,9,4,25,0.00
2013-3-24,44.2,36.9,29.8,21.6,20.0,17.1,66,51,37,29.67,29.57,8,2,16,0.00
2013-3-25,39.6,35.2,30.6,29.6,25.7,21.0,74,68,58,29.61,29.36,9,4,21,0.00
2013-3-26,46.7,38.8,34.0,27.9,22.8,16.4,71,54,31,29.63,29.38,6,3,17,0.00
2013-3-27,51.6,41.4,32.9,29.4,21.5,16.7,66,46,28,29.71,29.60,10,3,21,0.00
2013-3-28,48.5,41.4,34.6,32.9,29.8,25.7,92,65,43,29.86,29.71,7,3,18,0.01
2013-3-29,57.0,45.5,36.6,32.1,28.9,23.1,77,54,28,29.89,29.81,6,2,17,0.00
2013-3-30,55.7,45.7,36.5,30.8,20.9,10.4,70,42,18,29.93,29.85,8,2,19,0.00
2013-3-31,60.4,46.7,31.3,40.2,25.0,18.4,91,47,20,29.95,29.56,7,2,20,0.06
2013-4-1,63.9,45.0,32.2,43.0,33.7,8.9,96,68,33,29.63,29.35,10,3,29,0.16
2013-4-2,38.9,31.9,26.7,19.0,11.7,6.5,65,44,27,29.80,29.63,9,5,24,0.00
2013-4-3,43.1,34.5,27.9,17.4,11.1,5.9,59,39,22,30.01,29.79,12,5,28,0.00
2013-4-4,56.2,40.7,27.3,25.6,14.7,7.6,63,38,16,30.15,29.88,6,3,17,0.00
2013-4-5,59.5,44.4,34.7,28.5,24.1,14.9,76,49,18,29.89,29.49,13,4,27,0.00
2013-4-6,45.7,36.6,30.0,25.1,6.5,-3.0,62,31,14,30.17,29.73,15,4,27,0.00
2013-4-7,56.2,43.0,27.3,39.3,23.8,0.9,83,49,23,30.17,29.84,8,3,28,0.00
2013-4-8,64.8,52.4,41.6,41.5,37.4,30.6,94,62,28,29.91,29.80,6,2,16,0.00
2013-4-9,70.1,56.3,44.9,53.0,42.0,36.7,96,63,34,29.90,29.69,9,3,24,0.09
2013-4-10,66.8,53.7,44.3,50.0,45.4,42.0,95,75,48,29.84,29.68,5,1,11,0.18
2013-4-11,52.9,46.4,38.0,45.7,36.1,22.6,96,70,36,29.98,29.65,7,3,14,0.07
2013-4-12,38.0,36.4,35.3,35.0,33.7,29.4,96,90,72,30.00,29.63,8,4,19,0.48
2013-4-13,52.0,43.1,33.5,37.7,33.2,30.6,96,71,46,29.78,29.61,7,2,19,0.08
2013-4-14,51.3,44.2,37.8,36.9,29.3,22.3,84,58,35,30.06,29.76,9,2,26,0.00
2013-4-15,56.2,41.2,34.4,30.5,27.2,24.9,72,59,32,30.22,30.07,3,0,7,0.00
2013-4-16,67.3,51.9,35.3,49.6,40.4,32.6,93,68,38,30.23,29.91,9,4,21,0.00
2013-4-17,65.3,56.3,48.9,52.1,33.9,23.1,93,48,21,30.17,29.91,8,3,18,0.01
2013-4-18,63.9,51.7,41.2,43.7,29.9,24.4,76,45,27,30.25,29.97,9,2,21,0.00
2013-4-19,75.6,61.9,51.0,61.2,56.2,44.0,96,83,54,29.97,29.48,8,4,22,0.00
2013-4-20,63.4,52.2,43.8,61.0,49.1,36.2,94,89,65,29.68,29.45,7,3,19,0.45
2013-4-21,51.4,41.3,32.2,28.6,18.8,13.4,69,42,22,30.52,30.09,9,3,26,0.00
2013-4-22,48.6,40.8,32.7,32.5,26.8,18.2,80,60,30,30.58,30.42,10,4,20,0.00
2013-4-23,39.5,37.8,35.6,38.7,35.1,28.9,97,90,71,30.42,29.96,9,5,20,0.00
2013-4-24,77.0,54.9,39.1,47.9,41.4,31.7,97,68,20,29.94,29.64,9,4,19,0.00
2013-4-25,62.3,53.4,45.1,50.9,31.5,-99.9,92,50,19,30.11,29.67,10,3,20,0.02
2013-4-26,58.9,50.2,41.2,36.4,30.1,21.0,76,47,35,30.26,30.12,6,2,14,0.00
2013-4-27,66.0,51.0,36.9,36.8,33.4,27.9,88,56,25,30.26,30.12,7,1,16,0.00
2013-4-28,72.3,55.4,39.3,40.1,32.6,23.9,89,48,20,30.18,30.05,8,1,18,0.00
2013-4-29,70.4,57.0,45.7,45.5,34.4,20.4,87,48,24,30.11,30.02,8,1,16,0.00
2013-4-30,69.3,57.7,46.8,32.9,25.1,12.5,54,31,13,30.19,30.08,5,1,13,0.00
2013-5-1,68.6,56.6,39.8,41.3,30.7,22.7,69,40,22,30.31,30.20,6,1,16,0.00
2013-5-2,76.7,58.3,45.8,43.5,38.3,32.2,79,52,22,30.32,30.15,7,2,17,0.00
2013-5-3,59.8,50.2,41.3,42.5,38.7,35.7,83,66,50,30.36,30.23,7,3,17,0.00
2013-5-4,61.0,50.6,39.6,42.8,36.5,24.2,89,61,29,30.22,30.13,6,2,17,0.00
2013-5-5,61.6,48.9,37.0,39.9,37.3,35.2,93,68,40,30.17,30.07,5,1,12,0.00
2013-5-6,75.8,57.0,40.3,48.7,42.0,36.3,95,63,27,30.11,29.96,5,1,12,0.00
2013-5-7,78.6,63.7,46.5,55.6,49.4,44.0,91,63,35,30.01,29.93,6,1,17,0.00
2013-5-8,71.8,60.8,52.9,62.5,56.1,-99.9,97,87,64,30.03,29.88,8,1,22,0.73
2013-5-9,68.3,59.5,56.5,59.4,57.2,55.3,97,92,67,29.88,29.72,2,0,10,0.23
2013-5-10,82.2,67.0,52.2,58.1,52.9,45.2,97,66,28,29.80,29.73,3,0,8,0.01
2013-5-11,68.6,62.3,57.5,61.4,57.7,52.7,95,85,70,29.75,29.53,3,1,14,0.10
2013-5-12,72.8,59.5,47.7,59.1,48.2,29.0,96,70,38,29.66,29.41,7,1,21,0.10
2013-5-13,58.0,48.5,40.1,32.0,27.4,22.5,69,45,27,29.87,29.67,7,2,18,0.00
2013-5-14,55.0,48.1,41.2,35.4,27.9,21.9,73,47,28,29.90,29.83,7,2,16,0.00
2013-5-15,66.1,50.9,37.3,51.0,39.3,29.3,92,68,30,29.90,29.52,4,1,17,0.03
2013-5-16,80.5,67.7,52.9,50.8,38.7,29.3,92,40,18,29.63,29.48,8,3,27,0.00
2013-5-17,68.4,58.7,48.9,42.9,37.5,30.3,75,48,26,30.06,29.64,7,3,19,0.00
2013-5-18,73.0,59.7,45.8,47.0,41.7,33.9,91,57,26,30.14,30.06,3,0,14,0.00
2013-5-19,73.0,58.2,47.3,54.1,49.3,44.2,96,75,42,30.18,30.05,2,0,7,0.08
2013-5-20,82.6,68.7,54.5,63.1,59.3,53.4,97,75,50,30.04,29.77,4,1,16,0.01
2013-5-21,89.0,66.6,49.8,67.9,59.1,48.5,96,80,42,29.84,29.68,5,1,13,0.50
2013-5-22,78.6,60.1,49.1,66.8,55.9,48.0,97,87,64,29.89,29.70,7,1,19,0.17
2013-5-23,71.8,64.5,55.0,67.4,61.7,53.0,97,91,80,29.76,29.64,3,0,16,0.14
2013-5-24,74.0,61.7,47.0,66.1,57.9,45.6,97,88,63,29.68,29.50,7,2,17,0.52
2013-5-25,48.9,45.0,39.6,47.2,43.2,36.0,96,93,85,29.67,29.58,7,4,18,0.38
2013-5-26,56.0,47.5,37.8,38.9,36.6,34.3,92,67,47,29.96,29.59,10,5,28,0.04
2013-5-27,71.5,57.6,39.3,40.2,35.8,28.6,93,50,22,30.01,29.93,7,2,20,0.00
2013-5-28,77.0,61.6,46.4,53.5,42.1,36.3,83,53,23,30.08,30.00,1,0,8,0.00
2013-5-29,75.3,63.0,56.6,65.4,59.7,53.5,97,89,70,30.02,29.83,5,0,18,0.89
2013-5-30,88.4,75.1,61.6,68.8,64.5,60.7,97,73,44,29.94,29.86,4,1,19,0.01
2013-5-31,94.9,80.9,66.4,69.3,64.0,57.6,93,61,31,29.93,29.79,3,0,10,0.00
2013-6-1,92.9,78.9,64.7,68.2,64.1,60.0,88,63,35,29.82,29.71,1,0,11,0.00
2013-6-2,89.5,76.0,66.3,68.2,64.9,60.3,92,71,39,29.73,29.57,3,0,13,0.01
2013-6-3,79.2,68.6,59.2,66.1,61.0,41.5,96,79,49,29.69,29.60,4,0,13,0.53
2013-6-4,71.5,60.8,50.7,46.3,41.1,36.6,62,49,34,29.94,29.68,7,2,22,0.00
2013-6-5,76.0,62.8,50.2,49.6,44.7,38.8,80,54,27,30.04,29.94,2,0,10,0.00
2013-6-6,73.0,62.0,51.7,53.3,47.7,-99.9,91,63,39,30.04,29.94,4,1,13,0.03
2013-6-7,57.8,54.6,51.7,56.8,53.2,50.6,97,95,91,29.94,29.66,4,1,14,1.89
2013-6-8,79.0,62.5,51.1,63.0,55.0,-99.9,97,80,54,29.85,29.48,6,2,17,0.82
2013-6-9,79.8,68.2,56.6,56.7,53.5,49.8,90,62,39,30.01,29.85,5,1,16,0.00
2013-6-10,69.9,62.1,56.6,61.2,57.0,52.5,96,84,61,30.04,29.84,3,0,11,0.96
2013-6-11,62.1,57.3,55.0,57.3,55.6,54.2,97,94,82,29.84,29.43,3,1,12,1.09
2013-6-12,67.9,61.7,56.9,57.2,52.4,49.7,97,73,54,29.67,29.41,10,4,26,0.01
2013-6-13,62.1,55.4,50.7,57.4,52.1,48.9,97,89,77,29.67,29.51,2,0,11,1.21
2013-6-14,74.0,59.6,50.1,53.9,50.8,47.7,97,76,41,29.63,29.48,5,2,16,1.16
2013-6-15,78.3,67.7,58.4,52.1,44.8,37.9,69,46,26,29.80,29.63,5,2,16,0.00
2013-6-16,76.5,66.8,55.4,61.8,52.9,43.3,80,62,43,29.79,29.56,3,0,11,0.00
2013-6-17,85.7,69.5,59.3,62.2,58.7,55.2,96,72,37,29.75,29.62,10,0,29,0.30
2013-6-18,75.8,62.1,57.0,63.3,59.1,55.9,97,90,63,29.79,29.70,5,0,20,1.01
2013-6-19,76.0,63.6,54.2,55.9,48.9,38.7,97,63,31,29.99,29.76,5,1,16,0.14
2013-6-20,80.5,67.1,53.6,55.9,48.8,42.3,77,55,28,30.10,30.00,2,0,7,0.00
2013-6-21,84.9,70.3,56.2,63.6,57.8,52.5,90,67,42,30.09,30.04,2,0,11,0.00
2013-6-22,85.7,72.8,60.5,64.9,57.9,54.5,81,62,36,30.07,29.96,1,0,11,0.00
2013-6-23,91.2,76.3,62.3,71.7,63.9,55.6,82,67,48,30.01,29.85,1,0,10,0.00
2013-6-24,92.9,78.4,68.3,71.7,68.1,64.5,94,73,46,29.87,29.73,8,1,25,0.06
2013-6-25,93.2,78.0,66.4,70.3,66.3,63.3,93,70,40,29.78,29.58,2,0,16,0.16
2013-6-26,85.1,75.8,67.8,68.9,67.1,65.3,95,76,53,29.68,29.57,3,1,18,0.00
2013-6-27,70.9,66.7,63.2,68.0,64.5,62.0,97,93,81,29.70,29.59,1,0,6,0.04
2013-6-28,80.7,69.8,61.0,73.1,66.1,60.1,98,89,68,29.59,29.33,3,1,12,0.60
2013-6-29,84.1,74.4,69.3,69.8,67.5,65.1,96,80,56,29.57,29.35,2,0,16,0.00
2013-6-30,87.2,75.7,68.9,70.4,68.2,66.2,94,79,52,29.77,29.57,2,0,13,0.00
2013-7-1,80.1,73.9,70.6,75.0,70.5,68.5,96,89,75,29.92,29.77,2,0,7,0.12
2013-7-2,83.6,75.7,66.1,72.3,70.1,62.7,95,83,67,30.03,29.91,2,0,8,0.01
2013-7-3,89.7,76.4,64.0,72.8,68.4,61.6,96,78,54,30.05,29.99,1,0,11,0.00
2013-7-4,93.2,81.7,71.1,74.3,71.6,69.8,96,74,50,30.05,29.95,1,0,11,0.00
2013-7-5,95.1,83.4,73.5,74.8,71.6,68.1,90,70,45,30.01,29.89,2,0,11,0.00
2013-7-6,90.3,81.1,73.2,73.3,70.2,66.0,91,71,50,29.92,29.83,4,1,17,0.00
2013-7-7,94.0,79.7,72.1,75.1,69.2,65.0,92,72,46,29.87,29.75,1,0,7,0.00
2013-7-8,91.2,78.4,69.4,73.0,69.6,65.4,96,77,45,29.89,29.75,3,0,12,0.00
2013-7-9,75.1,69.3,65.0,68.5,65.8,64.0,97,89,79,29.95,29.87,2,0,7,0.00
2013-7-10,85.1,73.6,66.6,73.6,69.5,64.1,97,88,64,29.91,29.64,4,0,13,0.16
2013-7-11,86.3,75.8,71.1,73.8,70.3,64.1,97,85,58,29.77,29.62,2,0,7,0.09
2013-7-12,75.1,70.2,66.1,64.1,59.6,55.1,80,69,58,30.04,29.77,6,2,17,0.00
2013-7-13,74.9,68.6,62.4,70.5,64.6,56.3,96,87,71,30.15,30.04,2,0,7,0.01
2013-7-14,91.2,79.9,70.8,72.8,70.3,67.3,97,75,48,30.15,30.05,3,0,11,0.00
2013-7-15,90.7,81.3,72.5,72.4,69.1,63.8,92,69,41,30.05,29.94,4,0,12,0.00
2013-7-16,90.1,81.6,72.3,69.3,65.8,61.5,79,60,40,30.01,29.95,5,1,16,0.00
2013-7-17,95.9,82.8,71.5,74.3,69.3,61.7,93,67,35,30.02,29.85,2,0,8,0.00
2013-7-18,97.1,84.5,74.6,73.7,70.8,66.2,85,66,39,29.85,29.77,2,0,10,0.00
2013-7-19,96.6,85.1,74.6,76.4,72.9,68.8,93,70,42,29.79,29.57,3,0,18,0.00
2013-7-20,92.9,82.1,74.0,75.7,71.6,59.8,91,72,46,29.65,29.51,5,0,16,0.27
2013-7-21,87.8,76.4,68.1,67.4,63.0,58.9,86,65,38,29.82,29.65,2,0,7,0.00
2013-7-22,84.0,72.5,65.5,68.3,66.2,63.0,96,82,51,29.85,29.72,2,0,10,0.00
2013-7-23,84.1,71.8,68.3,76.9,70.0,66.0,97,94,73,29.72,29.38,7,0,14,2.35
2013-7-24,83.4,75.1,65.2,72.0,65.0,54.8,97,73,48,29.79,29.42,5,1,13,0.00
2013-7-25,64.8,58.3,56.6,57.2,52.8,46.3,96,83,65,29.95,29.79,5,2,14,0.16
2013-7-26,72.3,63.9,58.9,65.3,59.8,56.7,96,87,68,29.91,29.81,6,3,17,0.38
2013-7-27,84.1,70.7,59.5,67.0,62.2,57.5,97,77,47,29.91,29.83,1,0,8,0.01
2013-7-28,85.1,72.3,63.4,70.0,65.0,60.8,96,80,49,29.86,29.80,2,0,8,0.00
2013-7-29,82.8,73.2,64.8,71.9,66.4,59.0,96,80,58,29.88,29.80,4,0,12,0.07
2013-7-30,81.6,71.6,62.6,59.6,55.6,52.5,75,58,41,29.95,29.88,5,1,14,0.00
2013-7-31,82.4,70.7,61.6,62.8,58.0,52.1,89,67,40,29.98,29.88,3,0,7,0.00
2013-8-1,79.2,67.5,60.5,66.6,62.3,59.4,96,85,57,29.89,29.71,4,0,10,0.08
2013-8-2,82.2,71.1,63.2,66.3,61.2,-99.9,97,76,41,29.73,29.64,4,1,18,0.77
2013-8-3,79.8,69.1,62.0,63.2,61.3,58.9,96,78,49,29.72,29.63,3,0,14,0.00
2013-8-4,79.4,67.4,58.7,59.6,54.3,51.1,93,65,39,29.75,29.63,6,1,17,0.00
2013-8-5,74.0,63.6,54.7,52.2,46.4,38.9,85,57,29,29.90,29.74,7,2,18,0.00
2013-8-6,79.4,65.6,52.5,55.1,50.6,45.8,88,62,36,29.99,29.90,2,0,7,0.00
2013-8-7,78.1,67.4,56.9,60.6,55.4,49.1,95,69,40,30.03,29.96,5,1,13,0.00
2013-8-8,80.1,70.6,64.0,70.0,65.6,57.3,96,85,69,29.96,29.86,2,0,11,0.12
2013-8-9,75.3,71.8,69.8,74.4,70.0,67.5,97,94,88,29.87,29.60,4,1,14,1.57
2013-8-10,81.4,72.2,63.7,69.5,58.7,47.9,97,66,38,29.85,29.65,6,1,18,0.01
2013-8-11,78.6,66.9,55.3,58.0,52.8,48.5,90,63,39,29.93,29.86,4,0,14,0.00
2013-8-12,83.0,70.1,59.2,62.0,57.6,51.5,94,68,37,29.88,29.77,3,0,11,0.00
2013-8-13,74.6,67.3,63.5,67.2,63.2,60.2,94,87,68,29.77,29.53,3,0,8,0.02
2013-8-14,72.3,64.9,58.3,62.7,52.0,46.3,93,64,45,29.82,29.52,7,3,25,0.00
2013-8-15,76.7,64.8,54.1,53.2,50.5,47.3,86,63,37,29.96,29.83,3,0,13,0.00
2013-8-16,79.8,66.6,53.3,56.9,53.4,50.4,91,66,38,30.05,29.96,3,0,10,0.00
2013-8-17,81.6,68.6,57.8,60.8,56.4,52.3,88,67,38,30.12,30.05,1,0,6,0.00
2013-8-18,80.9,68.4,59.5,63.2,59.6,57.0,94,75,45,30.12,29.93,1,0,7,0.00
2013-8-19,81.8,70.2,59.8,62.1,58.9,55.5,93,70,45,29.93,29.81,3,0,13,0.00
2013-8-20,85.1,74.6,64.5,62.2,59.3,55.7,81,61,38,29.94,29.83,2,0,9,0.00
2013-8-21,88.4,75.3,62.1,65.3,62.0,58.0,92,66,39,29.99,29.87,1,0,7,0.00
2013-8-22,86.7,74.0,63.2,71.2,66.4,61.1,95,78,53,29.88,29.67,1,0,7,0.00
2013-8-23,77.6,70.9,63.9,67.9,56.8,48.5,92,63,41,29.97,29.67,5,2,14,0.00
2013-8-24,76.3,65.7,57.3,52.1,47.3,40.6,78,54,28,30.18,29.97,4,1,12,0.00
2013-8-25,82.8,68.6,54.8,55.7,51.7,45.3,89,59,28,30.21,30.03,1,0,7,0.00
2013-8-26,82.0,70.6,62.7,66.2,60.9,55.5,91,72,48,30.03,29.72,2,0,19,0.03
2013-8-27,82.4,72.7,67.4,69.1,66.5,62.6,96,82,56,29.74,29.67,3,0,11,0.18
2013-8-28,85.9,74.1,64.5,67.1,64.4,62.7,95,74,48,29.79,29.69,2,0,8,0.00
2013-8-29,66.8,63.4,59.9,63.7,60.8,56.9,96,91,86,29.91,29.77,4,1,12,0.01
2013-8-30,84.1,69.8,59.6,67.2,62.5,57.0,93,79,52,29.88,29.68,2,0,11,0.00
2013-8-31,79.2,73.3,67.4,71.4,69.4,65.5,96,88,75,29.68,29.64,1,0,6,0.01
2013-9-1,76.5,71.5,67.6,74.2,69.8,66.1,97,95,90,29.72,29.64,1,0,7,0.48
2013-9-2,76.3,72.5,70.3,73.9,70.5,69.4,97,94,84,29.71,29.56,2,0,10,0.31
2013-9-3,81.2,70.9,62.6,71.6,65.6,54.9,97,84,62,29.67,29.54,3,0,13,0.02
2013-9-4,78.8,68.3,58.7,58.8,55.6,51.7,89,66,41,29.77,29.65,4,1,14,0.00
2013-9-5,68.6,62.5,55.1,61.1,51.0,36.7,93,69,32,29.99,29.71,6,1,14,0.04
2013-9-6,68.6,56.8,46.2,46.5,40.7,34.6,85,57,30,30.09,29.95,4,0,11,0.00
2013-9-7,79.0,63.8,48.9,55.6,49.0,43.0,86,62,31,29.95,29.71,1,0,7,0.00
2013-9-8,74.2,63.3,51.1,60.0,50.6,38.6,92,66,36,29.94,29.61,9,2,21,0.00
2013-9-9,69.8,58.1,45.4,49.9,43.4,36.5,81,60,32,30.08,29.94,2,0,7,0.00
2013-9-10,74.2,65.3,54.5,68.5,61.7,49.6,95,88,80,30.00,29.88,1,0,9,0.04
2013-9-11,93.8,79.7,68.6,76.1,70.9,64.7,97,77,48,29.92,29.80,6,0,24,0.01
2013-9-12,86.1,75.1,66.1,73.6,68.7,64.8,96,82,58,29.81,29.52,2,0,11,1.15
2013-9-13,79.9,67.6,58.3,67.6,61.9,52.1,97,83,54,29.61,29.42,7,1,19,0.04
2013-9-14,67.1,60.4,53.9,52.2,49.8,48.5,82,69,55,29.91,29.61,6,2,14,0.00
2013-9-15,70.9,59.2,48.0,51.3,48.1,42.2,94,70,36,30.01,29.90,1,0,8,0.00
2013-9-16,64.5,56.9,46.4,54.7,48.4,35.7,89,74,57,30.10,29.87,7,2,14,0.01
2013-9-17,59.9,49.8,40.2,43.7,37.2,33.5,90,64,42,30.28,30.10,5,2,13,0.00
2013-9-18,72.5,57.1,42.6,50.0,44.1,38.4,94,67,31,30.18,29.99,3,0,8,0.00
2013-9-19,77.9,63.0,47.9,54.5,49.2,44.8,89,65,35,29.99,29.89,1,0,8,0.00
2013-9-20,79.6,63.9,50.7,55.6,52.2,48.7,94,70,37,29.93,29.84,2,0,7,0.00
2013-9-21,72.8,64.0,54.2,63.9,58.7,52.8,97,84,63,29.86,29.56,3,1,16,0.00
2013-9-22,68.9,62.2,50.5,65.8,54.0,42.5,97,76,51,29.69,29.45,5,2,20,0.74
2013-9-23,60.4,51.4,44.6,42.8,39.9,36.8,83,66,47,29.86,29.69,6,3,17,0.00
2013-9-24,65.0,52.8,40.8,43.5,39.3,35.2,88,63,34,29.86,29.67,6,2,16,0.00
2013-9-25,66.9,56.3,46.5,52.3,46.0,41.3,88,69,52,29.83,29.72,5,1,13,0.00
2013-9-26,64.0,56.5,52.3,49.5,47.1,43.3,85,72,51,29.97,29.83,3,0,10,0.00
2013-9-27,63.2,57.0,52.5,53.2,50.1,48.5,91,78,64,30.11,29.97,5,1,13,0.00
2013-9-28,70.3,59.5,51.6,54.5,50.5,48.0,90,74,49,30.18,30.11,4,0,12,0.00
2013-9-29,65.6,54.5,46.0,55.8,46.0,38.3,97,77,38,30.11,29.97,2,0,7,0.00
2013-9-30,66.6,54.3,41.3,51.0,47.0,40.5,98,79,48,29.97,29.81,3,0,7,0.01
2013-10-1,75.1,63.2,48.9,56.4,51.0,46.4,92,67,39,29.81,29.71,5,1,13,0.00
2013-10-2,77.0,67.2,55.6,59.9,55.4,52.3,91,67,51,29.81,29.70,6,1,18,0.00
2013-10-3,78.1,64.6,53.3,53.5,49.4,40.3,88,60,33,29.94,29.81,2,0,8,0.00
2013-10-4,62.7,57.7,54.2,56.7,52.5,46.6,95,83,70,29.93,29.88,2,0,6,0.26
2013-10-5,68.3,61.6,56.7,59.3,57.0,54.7,97,86,68,29.97,29.90,1,0,6,0.03
2013-10-6,59.0,55.3,52.9,56.9,54.2,51.8,98,96,91,30.06,29.95,2,0,8,0.36
2013-10-7,74.7,62.9,54.5,69.4,59.8,51.5,98,91,71,29.98,29.65,5,1,30,0.24
2013-10-8,62.6,56.0,48.8,51.7,41.8,35.1,83,61,36,30.22,29.76,6,2,17,0.00
2013-10-9,60.5,50.5,43.1,45.1,41.4,36.6,94,72,52,30.32,30.22,5,1,12,0.00
2013-10-10,59.3,51.4,42.1,51.3,47.4,40.7,97,87,71,30.22,30.03,3,0,7,0.00
2013-10-11,68.1,56.8,48.3,55.1,47.2,40.5,97,72,43,30.03,29.94,4,1,11,0.00
2013-10-12,58.0,53.7,50.5,54.2,50.3,44.6,97,88,70,30.23,29.99,4,1,13,0.00
2013-10-13,57.8,51.1,44.1,48.8,46.0,42.2,96,84,66,30.29,30.22,3,1,11,0.00
2013-10-14,63.1,50.5,36.0,51.1,42.3,35.2,98,76,41,30.26,30.10,2,0,6,0.01
2013-10-15,66.4,56.4,48.9,51.1,48.2,44.6,92,75,50,30.11,30.02,3,0,7,0.00
2013-10-16,58.6,53.1,48.0,52.7,49.6,46.9,98,89,71,30.02,29.77,2,0,6,0.00
2013-10-17,71.1,60.5,50.5,60.1,55.1,49.3,98,84,58,29.77,29.57,2,0,11,0.03
2013-10-18,64.8,58.7,47.6,59.9,48.7,39.4,97,72,47,29.76,29.45,7,2,21,0.01
2013-10-19,67.8,54.2,41.3,46.4,41.4,38.0,90,64,37,29.83,29.59,3,0,8,0.00
2013-10-20,59.2,51.7,42.9,50.0,38.1,28.9,97,63,33,29.88,29.54,7,2,22,0.03
2013-10-21,63.1,45.9,39.1,39.8,36.2,34.7,87,71,37,29.96,29.86,0,0,2,0.00
2013-10-22,65.5,55.6,44.2,52.2,45.3,34.7,97,70,50,29.74,29.57,4,1,10,0.01
2013-10-23,50.8,44.5,36.8,37.3,33.0,29.7,91,65,45,29.64,29.44,4,0,16,0.00
2013-10-24,51.9,41.1,35.9,33.6,18.8,-99.9,86,51,30,29.74,29.50,6,1,18,0.00
2013-10-25,46.8,39.9,33.7,33.8,27.8,24.0,89,63,42,30.02,29.74,8,1,16,0.00
2013-10-26,53.8,41.6,31.2,35.5,24.8,-99.9,90,59,30,30.02,29.72,2,0,13,0.00
2013-10-27,53.6,45.8,37.6,38.7,32.3,26.3,83,61,38,29.92,29.65,6,1,20,0.01
2013-10-28,57.8,44.2,32.9,33.8,30.3,23.3,87,61,37,30.19,29.92,6,1,24,0.00
2013-10-29,46.1,37.5,31.5,23.8,16.7,-99.9,69,47,28,30.30,30.19,5,1,14,0.00
2013-10-30,53.3,40.3,32.5,39.1,26.4,-99.9,91,68,56,30.22,30.04,3,0,13,0.00
2013-10-31,59.8,49.7,37.9,57.8,47.7,36.9,97,93,81,30.09,29.64,4,0,16,0.05
2013-11-1,66.8,61.5,54.2,61.6,56.2,51.2,96,83,68,29.64,29.31,6,2,17,0.12
2013-11-2,66.4,55.5,45.5,51.2,42.4,35.7,91,65,34,29.58,29.44,6,0,18,0.03
2013-11-3,48.3,40.5,30.9,44.9,26.7,11.7,88,61,27,30.26,29.57,6,3,17,0.00
2013-11-4,39.2,32.7,28.1,20.1,14.0,9.3,69,47,29,30.55,30.25,6,2,14,0.00
2013-11-5,49.1,38.3,27.3,33.8,26.1,19.6,82,63,42,30.56,30.36,3,0,10,0.00
2013-11-6,59.6,49.3,38.8,47.6,40.5,33.2,90,73,52,30.37,29.89,2,0,12,0.00
2013-11-7,63.2,51.9,38.3,56.0,47.2,31.1,93,84,72,29.89,29.54,7,2,18,0.10
2013-11-8,46.4,38.0,31.0,33.6,24.8,19.5,76,59,43,29.95,29.66,9,2,29,0.01
2013-11-9,42.8,35.8,27.2,27.6,23.1,18.6,79,61,39,30.07,29.87,6,1,18,0.00
2013-11-10,57.0,43.9,37.6,42.3,34.4,27.3,94,70,45,29.90,29.60,7,1,26,0.03
2013-11-11,49.2,43.3,36.9,30.0,26.2,22.3,62,51,36,29.95,29.69,9,3,26,0.00
2013-11-12,47.7,35.1,25.6,37.6,25.3,12.8,91,69,49,30.04,29.73,7,3,24,0.05
2013-11-13,33.1,27.3,21.8,15.8,12.0,6.2,70,53,32,30.15,30.02,7,2,19,0.00
2013-11-14,50.1,39.2,26.9,20.8,18.0,14.5,62,44,29,30.03,29.89,5,1,18,0.00
2013-11-15,60.4,46.3,34.1,30.4,19.6,13.3,61,37,16,30.05,29.95,3,0,8,0.00
2013-11-16,57.6,47.0,39.8,35.1,27.2,21.8,81,48,26,30.16,30.01,3,0,9,0.00
2013-11-17,52.9,44.0,37.3,45.6,40.5,34.6,98,88,68,30.15,29.69,1,0,5,0.04
2013-11-18,62.9,56.2,45.8,60.3,44.4,29.6,98,68,38,29.73,29.38,7,2,21,0.21
2013-11-19,47.4,38.0,29.4,30.3,20.6,14.8,58,50,40,30.13,29.50,12,5,25,0.00
2013-11-20,39.8,31.5,26.0,15.3,11.4,4.7,60,45,23,30.47,30.12,11,3,20,0.00
2013-11-21,47.4,36.5,23.8,32.1,18.1,9.6,71,48,29,30.48,30.22,3,0,12,0.00
2013-11-22,47.6,44.0,40.5,46.5,41.0,31.5,97,89,70,30.25,29.66,1,0,8,0.11
2013-11-23,47.9,38.3,26.7,45.1,24.2,13.0,95,58,35,29.77,29.65,8,3,26,0.00
2013-11-24,27.2,21.5,17.8,18.9,2.7,-9.7,84,46,22,30.05,29.66,13,6,34,0.00
2013-11-25,31.9,23.4,14.9,16.0,1.8,-9.9,57,40,20,30.22,30.04,7,3,24,0.00
2013-11-26,40.3,33.8,29.0,32.5,19.7,11.7,96,58,41,30.17,29.88,5,1,12,0.10
2013-11-27,60.9,47.6,33.4,60.0,46.0,29.5,98,94,81,29.91,29.08,11,4,29,1.51
2013-11-28,35.5,28.2,21.9,30.4,13.3,2.8,82,55,32,30.28,29.26,10,4,28,0.00
2013-11-29,32.2,25.9,19.5,15.2,9.6,2.7,69,51,36,30.59,30.27,7,2,17,0.00
2013-11-30,31.8,23.7,15.7,19.9,9.5,-99.9,71,55,41,30.64,30.26,4,1,11,0.00
2013-12-1,35.5,32.2,27.9,35.0,29.2,19.6,98,89,70,30.30,29.86,2,0,7,0.07
2013-12-2,39.2,36.5,35.0,38.4,35.9,34.3,98,97,96,29.87,29.76,3,0,10,0.00
2013-12-3,48.2,37.7,30.7,38.0,32.4,29.7,98,83,52,29.80,29.69,7,2,17,0.01
2013-12-4,45.1,35.7,29.0,30.3,27.2,25.5,92,72,49,30.04,29.80,5,0,12,0.00
2013-12-5,54.2,39.6,31.9,53.6,37.0,27.3,98,91,75,30.04,29.76,4,0,11,0.02
2013-12-6,53.9,46.7,32.7,53.3,44.0,31.4,98,90,69,29.98,29.69,5,2,14,0.29
2013-12-7,36.5,32.3,27.2,31.6,26.2,15.5,96,79,60,30.30,29.91,8,2,19,0.15
2013-12-8,29.4,26.6,21.0,18.6,14.5,11.4,74,60,49,30.44,30.28,3,0,9,0.00
2013-12-9,34.4,29.4,23.6,33.9,27.2,14.7,98,92,63,30.34,29.75,4,1,8,0.03
2013-12-10,34.3,30.2,21.6,31.7,26.5,13.8,97,86,61,29.85,29.63,5,1,18,0.01
2013-12-11,32.1,23.6,18.6,18.8,16.0,13.3,85,73,54,30.06,29.83,5,2,18,0.05
2013-12-12,22.9,18.6,11.1,15.8,5.9,-2.2,79,59,35,30.13,29.91,8,2,20,0.00
2013-12-13,28.5,20.4,13.1,17.0,9.4,4.5,74,62,47,30.21,29.85,6,2,20,0.00
2013-12-14,19.2,11.6,8.8,13.4,1.8,-8.4,89,66,39,30.44,29.99,6,3,14,0.00
2013-12-15,26.9,22.3,15.2,24.6,19.8,12.5,92,90,85,30.04,29.31,10,4,21,0.00
2013-12-16,24.7,21.3,14.9,20.2,11.8,5.9,91,68,47,30.04,29.59,9,3,22,0.01
2013-12-17,17.5,10.4,4.3,15.1,5.2,-2.5,90,79,66,30.12,29.80,9,2,19,0.00
2013-12-18,30.3,23.8,15.7,21.1,17.9,13.0,91,78,63,29.93,29.73,7,3,19,0.00
2013-12-19,40.6,31.8,20.8,25.1,21.4,16.9,85,66,47,29.96,29.80,8,1,20,0.06
2013-12-20,52.6,41.5,32.9,33.6,29.7,24.6,75,63,47,29.95,29.75,4,1,10,0.44
2013-12-21,56.5,46.9,38.6,46.1,40.3,31.5,91,78,61,29.81,29.70,5,1,12,0.00
2013-12-22,64.3,47.9,33.5,59.0,46.0,33.0,98,93,75,29.84,29.62,8,2,20,0.00
2013-12-23,39.6,33.7,31.3,39.1,33.2,30.8,98,98,97,29.93,29.82,6,1,14,0.63
2013-12-24,37.8,31.7,26.9,37.3,20.6,-99.9,98,66,47,30.02,29.89,8,4,19,0.01
2013-12-25,24.8,17.7,13.1,11.7,2.1,-2.6,63,50,37,30.38,30.05,8,3,21,0.00
2013-12-26,29.8,23.0,15.2,26.4,16.3,2.7,89,76,57,30.35,29.93,6,0,14,0.00
2013-12-27,33.2,27.0,21.9,20.9,18.4,16.0,87,70,52,30.13,30.05,6,1,16,0.05
2013-12-28,46.0,34.7,24.4,26.3,23.4,19.2,84,65,43,30.08,29.85,5,1,18,0.02
2013-12-29,41.8,36.9,34.1,36.8,30.4,25.3,97,78,63,29.88,29.27,12,2,25,1.13
2013-12-30,40.9,30.5,16.5,35.0,20.3,7.4,96,68,37,30.00,29.35,10,3,27,0.00
2013-12-31,25.1,18.2,11.2,14.1,7.4,-0.6,78,63,41,30.03,29.86,5,1,17,0.00
2014-1-1,26.6,20.8,14.6,9.8,5.0,-99.9,66,51,38,30.21,30.01,5,1,17,0.00
2014-1-2,20.5,10.9,0.3,14.3,6.4,-4.7,88,82,60,30.20,29.68,12,6,24,0.00